createdAt,value
2023-03-26T00:01:26.344Z,98983.06
2023-03-26T00:03:58.065Z,98987.06
2023-03-26T00:06:29.493Z,98982.69
2023-03-26T00:08:58.378Z,98995.31
2023-03-26T00:11:27.564Z,98987.72
2023-03-26T00:13:57.895Z,98985.63
2023-03-26T00:16:28.378Z,98989.44
2023-03-26T00:18:56.091Z,98987.41
2023-03-26T00:21:29.164Z,98991.09
2023-03-26T00:23:59.957Z,98984.19
2023-03-26T00:26:29.710Z,98985.53
2023-03-26T00:28:58.167Z,98966.28
2023-03-26T00:31:24.992Z,98969.88
2023-03-26T00:33:56.876Z,98950.09
2023-03-26T00:36:25.766Z,98950.97
2023-03-26T00:38:54.059Z,98964.44
2023-03-26T00:41:25.273Z,98945.03
2023-03-26T00:43:56.371Z,98947.41
2023-03-26T00:46:25.081Z,98940.56
2023-03-26T00:48:52.285Z,98943.59
2023-03-26T00:51:20.833Z,98930.59
2023-03-26T00:53:49.447Z,98941.75
2023-03-26T00:56:17.457Z,98948.44
2023-03-26T00:58:44.968Z,98953.25
2023-03-26T01:01:15.576Z,98950.53
2023-03-26T01:03:56.746Z,98944.91
2023-03-26T01:06:36.076Z,98933.59
2023-03-26T01:09:14.602Z,98931.09
2023-03-26T01:11:42.027Z,98937.22
2023-03-26T01:14:13.094Z,98939.41
2023-03-26T01:16:52.297Z,98944.09
2023-03-26T01:19:24.046Z,98941.41
2023-03-26T01:21:50.979Z,98939.00
2023-03-26T01:24:17.853Z,98937.25
2023-03-26T01:27:01.075Z,98937.88
2023-03-26T01:29:52.973Z,98932.59
2023-03-26T01:33:14.289Z,98935.06
2023-03-26T01:35:48.740Z,98939.84
2023-03-26T01:38:32.786Z,98941.78
2023-03-26T01:41:09.737Z,98939.88
2023-03-26T01:43:43.154Z,98935.06
2023-03-26T01:46:13.257Z,98936.56
2023-03-26T01:48:43.388Z,98940.69
2023-03-26T01:51:13.306Z,98943.38
2023-03-26T01:53:44.507Z,98941.03
2023-03-26T01:56:21.864Z,98943.00
2023-03-26T01:58:58.342Z,98937.50
2023-03-26T02:02:12.083Z,98936.22
2023-03-26T02:05:01.628Z,98924.53
2023-03-26T02:07:38.076Z,98936.03
2023-03-26T02:10:24.100Z,98939.34
2023-03-26T02:12:51.442Z,98924.25
2023-03-26T02:15:18.538Z,98934.91
2023-03-26T02:17:47.138Z,98937.09
2023-03-26T02:20:16.079Z,98942.25
2023-03-26T02:22:45.753Z,98932.28
2023-03-26T02:25:16.950Z,98918.28
2023-03-26T02:27:44.825Z,98917.44
2023-03-26T02:30:19.636Z,98909.97
2023-03-26T02:32:52.407Z,98916.47
2023-03-26T02:35:22.233Z,98922.13
2023-03-26T02:37:53.623Z,98912.97
2023-03-26T02:40:22.519Z,98919.94
2023-03-26T02:42:51.109Z,98930.28
2023-03-26T02:45:18.014Z,98948.44
2023-03-26T02:48:15.297Z,98948.41
2023-03-26T02:50:42.619Z,98952.91
2023-03-26T02:53:32.739Z,98924.78
2023-03-26T02:56:19.292Z,98937.06
2023-03-26T02:59:02.130Z,98949.84
2023-03-26T03:01:34.955Z,98949.31
2023-03-26T03:04:04.468Z,98931.00
2023-03-26T03:06:40.686Z,98943.69
2023-03-26T03:09:11.587Z,98969.91
2023-03-26T03:11:40.523Z,98975.34
2023-03-26T03:14:08.358Z,98972.72
2023-03-26T03:16:35.930Z,98972.63
2023-03-26T03:19:11.326Z,98968.59
2023-03-26T03:21:39.959Z,98958.53
2023-03-26T03:24:09.008Z,98969.06
2023-03-26T03:26:42.473Z,98992.41
2023-03-26T03:29:28.455Z,99043.69
2023-03-26T03:31:57.236Z,99050.94
2023-03-26T03:34:44.261Z,99032.84
2023-03-26T03:37:11.825Z,99023.50
2023-03-26T03:39:48.645Z,99025.56
2023-03-26T03:42:19.678Z,99023.19
2023-03-26T03:44:48.429Z,99017.22
2023-03-26T03:47:35.413Z,99017.50
2023-03-26T03:50:04.123Z,99011.97
2023-03-26T03:52:31.663Z,99029.91
2023-03-26T03:55:00.552Z,99040.00
2023-03-26T03:57:44.990Z,99034.38
2023-03-26T04:00:17.190Z,99039.66
2023-03-26T04:02:48.652Z,99033.72
2023-03-26T04:05:16.422Z,99040.66
2023-03-26T04:07:47.346Z,99026.16
2023-03-26T04:10:23.207Z,99028.38
2023-03-26T04:13:08.531Z,99048.03
2023-03-26T04:15:58.772Z,99036.75
2023-03-26T04:18:26.660Z,99029.09
2023-03-26T04:20:55.840Z,99040.75
2023-03-26T04:23:29.225Z,99040.94
2023-03-26T04:26:04.966Z,99031.69
2023-03-26T04:29:03.773Z,99030.72
2023-03-26T04:31:34.244Z,99027.72
2023-03-26T04:34:14.764Z,99030.25
2023-03-26T04:36:54.631Z,99043.84
2023-03-26T04:39:29.466Z,99041.56
2023-03-26T04:42:20.048Z,99042.59
2023-03-26T04:45:15.216Z,99042.28
2023-03-26T04:47:46.541Z,99044.72
2023-03-26T04:50:14.325Z,99054.41
2023-03-26T04:52:43.288Z,99044.81
2023-03-26T04:55:37.024Z,99045.84
2023-03-26T04:58:14.114Z,99051.56
2023-03-26T05:00:52.877Z,99043.09
2023-03-26T05:03:21.129Z,99046.41
2023-03-26T05:05:49.816Z,99051.50
2023-03-26T05:08:16.697Z,99047.41
2023-03-26T05:10:44.224Z,99048.88
2023-03-26T05:13:27.564Z,99049.19
2023-03-26T05:15:56.389Z,99049.31
2023-03-26T05:18:37.035Z,99054.13
2023-03-26T05:21:04.986Z,99057.50
2023-03-26T05:23:33.067Z,99061.03
2023-03-26T05:26:15.783Z,99061.50
2023-03-26T05:28:43.017Z,99065.28
2023-03-26T05:31:21.346Z,99070.81
2023-03-26T05:33:53.128Z,99069.53
2023-03-26T05:36:20.127Z,99074.97
2023-03-26T05:38:52.489Z,99083.28
2023-03-26T05:41:54.564Z,99080.41
2023-03-26T05:44:27.250Z,99077.25
2023-03-26T05:46:54.575Z,99085.59
2023-03-26T05:49:25.583Z,99082.97
2023-03-26T05:51:55.435Z,99088.38
2023-03-26T05:54:49.077Z,99095.41
2023-03-26T05:57:35.641Z,99096.13
2023-03-26T06:00:38.539Z,99098.44
2023-03-26T06:03:12.932Z,99095.44
2023-03-26T06:05:59.368Z,99101.44
2023-03-26T06:08:39.478Z,99102.81
2023-03-26T06:11:10.396Z,99105.88
2023-03-26T06:13:39.779Z,99105.41
2023-03-26T06:16:07.482Z,99109.59
2023-03-26T06:18:38.289Z,99113.63
2023-03-26T06:21:37.664Z,99115.28
2023-03-26T06:24:12.264Z,99117.94
2023-03-26T06:27:05.488Z,99111.25
2023-03-26T06:29:48.284Z,99117.09
2023-03-26T06:32:35.352Z,99106.63
2023-03-26T06:35:09.395Z,99098.78
2023-03-26T06:37:36.504Z,99107.94
2023-03-26T06:40:04.327Z,99112.09
2023-03-26T06:43:07.816Z,99109.25
2023-03-26T06:46:10.466Z,99113.44
2023-03-26T06:49:06.156Z,99098.72
2023-03-26T06:51:53.273Z,99106.41
2023-03-26T06:54:38.777Z,99113.25
2023-03-26T06:57:47.872Z,99117.25
2023-03-26T07:00:38.136Z,99127.06
2023-03-26T07:03:23.500Z,99119.38
2023-03-26T07:06:09.116Z,99127.66
2023-03-26T07:08:57.516Z,99132.78
2023-03-26T07:11:42.818Z,99136.69
2023-03-26T07:14:30.518Z,99133.91
2023-03-26T07:17:16.207Z,99133.94
2023-03-26T07:19:53.713Z,99136.25
2023-03-26T07:22:25.743Z,99140.00
2023-03-26T07:25:06.412Z,99139.25
2023-03-26T07:28:16.506Z,99146.34
2023-03-26T07:31:22.244Z,99151.25
2023-03-26T07:34:43.203Z,99157.16
2023-03-26T07:37:47.519Z,99146.97
2023-03-26T07:40:51.653Z,99153.66
2023-03-26T07:43:45.451Z,99169.97
2023-03-26T07:46:34.098Z,99161.13
2023-03-26T07:49:17.915Z,99167.25
2023-03-26T07:52:19.879Z,99163.84
2023-03-26T07:55:05.658Z,99160.59
2023-03-26T07:58:36.835Z,99159.56
2023-03-26T08:01:49.627Z,99162.53
2023-03-26T08:04:46.416Z,99160.41
2023-03-26T08:07:53.075Z,99161.78
2023-03-26T08:10:43.228Z,99152.44
2023-03-26T08:13:37.150Z,99161.06
2023-03-26T08:16:14.250Z,99155.34
2023-03-26T08:19:09.092Z,99143.66
2023-03-26T08:21:40.688Z,99161.19
2023-03-26T08:24:22.927Z,99141.53
2023-03-26T08:27:15.534Z,99136.19
2023-03-26T08:30:02.327Z,99152.38
2023-03-26T08:32:29.374Z,99143.31
2023-03-26T08:34:57.665Z,99151.47
2023-03-26T08:37:24.572Z,99130.16
2023-03-26T08:39:51.695Z,99132.94
2023-03-26T08:42:33.810Z,99142.78
2023-03-26T08:45:37.234Z,99145.09
2023-03-26T08:48:25.002Z,99139.69
2023-03-26T08:51:19.531Z,99140.69
2023-03-26T08:54:07.888Z,99142.47
2023-03-26T08:56:43.832Z,99140.97
2023-03-26T08:59:28.881Z,99145.81
2023-03-26T09:01:58.758Z,99139.41
2023-03-26T09:04:47.654Z,99140.50
2023-03-26T09:07:44.336Z,99138.03
2023-03-26T09:10:42.256Z,99134.03
2023-03-26T09:13:27.770Z,99137.81
2023-03-26T09:16:32.742Z,99130.16
2023-03-26T09:19:25.667Z,99129.41
2023-03-26T09:22:27.651Z,99130.63
2023-03-26T09:25:20.410Z,99135.81
2023-03-26T09:28:11.709Z,99141.97
2023-03-26T09:31:00.535Z,99133.22
2023-03-26T09:33:56.864Z,99132.91
2023-03-26T09:36:42.261Z,99132.81
2023-03-26T09:39:18.536Z,99131.66
2023-03-26T09:41:48.344Z,99135.25
2023-03-26T09:44:57.037Z,99138.44
2023-03-26T09:47:29.755Z,99131.63
2023-03-26T09:50:14.916Z,99132.91
2023-03-26T09:52:54.372Z,99135.50
2023-03-26T09:55:33.370Z,99142.13
2023-03-26T09:58:00.246Z,99141.81
2023-03-26T10:00:35.982Z,99129.75
2023-03-26T10:03:29.672Z,99135.56
2023-03-26T10:06:07.033Z,99147.25
2023-03-26T10:09:03.167Z,99138.00
2023-03-26T10:11:41.726Z,99132.84
2023-03-26T10:14:47.198Z,99134.88
2023-03-26T10:17:29.213Z,99140.06
2023-03-26T10:20:17.844Z,99136.41
2023-03-26T10:23:34.153Z,99135.00
2023-03-26T10:26:16.038Z,99126.69
2023-03-26T10:29:10.459Z,99149.19
2023-03-26T10:31:57.767Z,99119.16
2023-03-26T10:35:01.632Z,99126.88
2023-03-26T10:37:37.428Z,99127.31
2023-03-26T10:40:46.074Z,99115.44
2023-03-26T10:43:54.671Z,99114.50
2023-03-26T10:46:48.694Z,99115.75
2023-03-26T10:49:52.638Z,99125.53
2023-03-26T10:52:25.492Z,99117.63
2023-03-26T10:54:57.072Z,99118.16
2023-03-26T10:57:29.216Z,99124.66
2023-03-26T11:00:01.033Z,99116.16
2023-03-26T11:02:31.025Z,99127.56
2023-03-26T11:05:32.997Z,99115.50
2023-03-26T11:08:10.356Z,99113.25
2023-03-26T11:10:39.874Z,99114.47
2023-03-26T11:13:38.930Z,99106.56
2023-03-26T11:16:37.887Z,99100.63
2023-03-26T11:19:17.939Z,99090.50
2023-03-26T11:22:00.694Z,99098.56
2023-03-26T11:24:33.308Z,99099.84
2023-03-26T11:27:15.913Z,99092.00
2023-03-26T11:30:02.340Z,99074.38
2023-03-26T11:32:40.805Z,99079.13
2023-03-26T11:35:39.583Z,99077.44
2023-03-26T11:38:18.284Z,99069.63
2023-03-26T11:40:51.040Z,99067.53
2023-03-26T11:43:38.285Z,99063.31
2023-03-26T11:46:10.322Z,99068.06
2023-03-26T11:48:45.012Z,99071.41
2023-03-26T11:51:23.908Z,99062.72
2023-03-26T11:53:50.857Z,99064.91
2023-03-26T11:56:28.175Z,99071.19
2023-03-26T11:59:05.288Z,99074.97
2023-03-26T12:01:52.013Z,99056.59
2023-03-26T12:04:26.489Z,99058.88
2023-03-26T12:07:05.200Z,99038.91
2023-03-26T12:09:32.032Z,99042.03
2023-03-26T12:12:04.312Z,99036.06
2023-03-26T12:14:35.399Z,99041.03
2023-03-26T12:17:13.171Z,99039.13
2023-03-26T12:19:45.282Z,99031.50
2023-03-26T12:22:33.515Z,99032.88
2023-03-26T12:25:03.129Z,99027.03
2023-03-26T12:27:30.963Z,99032.66
2023-03-26T12:30:37.458Z,99028.31
2023-03-26T12:33:34.826Z,99018.13
2023-03-26T12:36:19.668Z,99011.34
2023-03-26T12:39:16.929Z,99011.63
2023-03-26T12:44:42.086Z,99007.59
2023-03-26T12:44:58.746Z,99003.06
2023-03-26T12:47:57.522Z,99000.81
2023-03-26T12:50:34.680Z,98997.91
2023-03-26T12:53:38.593Z,98996.25
2023-03-26T12:56:22.789Z,98991.63
2023-03-26T12:59:19.044Z,98987.16
2023-03-26T13:02:16.931Z,98986.00
2023-03-26T13:05:08.432Z,98979.16
2023-03-26T13:07:53.230Z,98985.38
2023-03-26T13:10:47.358Z,98978.34
2023-03-26T13:13:44.272Z,98975.72
2023-03-26T13:16:24.164Z,98978.88
2023-03-26T13:18:58.184Z,98968.28
2023-03-26T13:21:40.272Z,98967.06
2023-03-26T13:24:48.564Z,98962.50
2023-03-26T13:27:27.264Z,98966.00
2023-03-26T13:30:05.346Z,98970.25
2023-03-26T13:32:57.483Z,98964.22
2023-03-26T13:35:52.941Z,98971.00
2023-03-26T13:38:58.906Z,98966.88
2023-03-26T13:41:29.523Z,98962.34
2023-03-26T13:44:00.698Z,98978.16
2023-03-26T13:46:48.544Z,98971.75
2023-03-26T13:49:21.170Z,98977.13
2023-03-26T13:51:55.286Z,98967.78
2023-03-26T13:54:22.069Z,98977.47
2023-03-26T13:57:20.246Z,98971.66
2023-03-26T14:00:21.980Z,98976.84
2023-03-26T14:03:03.670Z,98971.44
2023-03-26T14:05:44.228Z,98978.97
2023-03-26T14:08:19.783Z,98975.44
2023-03-26T14:10:55.074Z,98980.97
2023-03-26T14:13:46.975Z,98979.19
2023-03-26T14:16:23.641Z,98985.22
2023-03-26T14:19:19.364Z,98977.44
2023-03-26T14:21:49.005Z,98979.53
2023-03-26T14:24:31.185Z,98978.97
2023-03-26T14:27:18.624Z,98987.09
2023-03-26T14:30:39.251Z,98990.81
2023-03-26T14:33:28.065Z,98968.69
2023-03-26T14:36:08.200Z,98972.69
2023-03-26T14:38:59.379Z,98973.50
2023-03-26T14:41:33.584Z,98960.88
2023-03-26T14:44:27.953Z,98967.91
2023-03-26T14:47:16.010Z,98972.91
2023-03-26T14:50:04.035Z,98973.31
2023-03-26T14:52:45.819Z,98971.44
2023-03-26T14:55:50.041Z,98975.19
2023-03-26T14:58:50.644Z,98975.19
2023-03-26T15:01:29.339Z,98970.00
2023-03-26T15:04:37.155Z,98973.91
2023-03-26T15:07:19.829Z,98971.84
2023-03-26T15:10:14.637Z,98965.84
2023-03-26T15:12:41.855Z,98961.69
2023-03-26T15:15:32.905Z,98966.47
2023-03-26T15:18:37.279Z,98961.31
2023-03-26T15:21:24.246Z,98966.28
2023-03-26T15:24:21.652Z,98975.19
2023-03-26T15:27:26.940Z,98979.13
2023-03-26T15:30:16.056Z,98972.91
2023-03-26T15:33:01.358Z,98972.28
2023-03-26T15:35:57.731Z,98980.13
2023-03-26T15:39:05.646Z,98983.56
2023-03-26T15:42:13.822Z,98981.47
2023-03-26T15:44:54.458Z,98986.41
2023-03-26T15:47:36.346Z,98981.91
2023-03-26T15:50:15.806Z,98986.22
2023-03-26T15:53:09.885Z,98987.84
2023-03-26T15:55:52.796Z,98990.25
2023-03-26T15:58:41.930Z,98990.25
2023-03-26T16:01:34.142Z,98999.22
2023-03-26T16:04:32.656Z,99001.34
2023-03-26T16:07:09.617Z,98997.84
2023-03-26T16:09:58.217Z,99014.00
2023-03-26T16:12:34.533Z,99011.44
2023-03-26T16:15:07.641Z,99010.38
2023-03-26T16:18:15.703Z,99017.66
2023-03-26T16:21:31.672Z,99015.88
2023-03-26T16:24:02.281Z,99021.06
2023-03-26T16:26:44.574Z,99019.13
2023-03-26T16:29:14.610Z,99025.44
2023-03-26T16:32:31.419Z,99022.91
2023-03-26T16:35:24.952Z,99019.66
2023-03-26T16:38:16.204Z,99015.75
2023-03-26T16:41:01.370Z,99008.34
2023-03-26T16:43:44.849Z,99010.22
2023-03-26T16:46:49.142Z,98997.94
2023-03-26T16:49:24.597Z,99006.31
2023-03-26T16:52:08.578Z,99008.59
2023-03-26T16:54:45.974Z,99014.97
2023-03-26T16:57:38.575Z,99011.31
2023-03-26T17:00:16.697Z,99016.28
2023-03-26T17:03:03.633Z,99020.44
2023-03-26T17:05:56.756Z,99015.91
2023-03-26T17:08:44.465Z,99024.06
2023-03-26T17:11:28.468Z,99033.56
2023-03-26T17:14:17.017Z,99035.03
2023-03-26T17:16:49.155Z,99045.19
2023-03-26T17:19:21.664Z,99050.97
2023-03-26T17:22:13.996Z,99054.00
2023-03-26T17:25:04.652Z,99057.28
2023-03-26T17:28:27.564Z,99068.47
2023-03-26T17:31:15.923Z,99069.63
2023-03-26T17:33:43.445Z,99072.47
2023-03-26T17:36:13.097Z,99074.16
2023-03-26T17:38:39.890Z,99074.16
2023-03-26T17:41:15.411Z,99081.03
2023-03-26T17:43:51.531Z,99089.16
2023-03-26T17:46:39.119Z,99083.81
2023-03-26T17:49:11.952Z,99089.69
2023-03-26T17:51:53.075Z,99087.53
2023-03-26T17:54:44.338Z,99084.19
2023-03-26T17:57:16.750Z,99092.84
2023-03-26T17:59:45.583Z,99083.69
2023-03-26T18:02:39.534Z,99085.75
2023-03-26T18:05:11.343Z,99097.38
2023-03-26T18:08:03.929Z,99086.25
2023-03-26T18:11:13.252Z,99086.41
2023-03-26T18:14:24.251Z,99080.91
2023-03-26T18:16:59.349Z,99075.41
2023-03-26T18:19:27.633Z,99075.91
2023-03-26T18:21:58.222Z,99085.94
2023-03-26T18:24:45.260Z,99085.59
2023-03-26T18:27:16.584Z,99093.88
2023-03-26T18:30:05.016Z,99090.22
2023-03-26T18:32:33.774Z,99086.34
2023-03-26T18:35:22.123Z,99088.81
2023-03-26T18:37:51.994Z,99068.16
2023-03-26T18:40:21.585Z,99074.34
2023-03-26T18:42:55.845Z,99077.50
2023-03-26T18:45:37.934Z,99084.84
2023-03-26T18:48:11.899Z,99081.50
2023-03-26T18:50:42.099Z,99085.41
2023-03-26T18:53:17.724Z,99087.25
2023-03-26T18:55:44.725Z,99091.97
2023-03-26T18:58:23.852Z,99090.00
2023-03-26T19:00:53.389Z,99089.09
2023-03-26T19:03:24.399Z,99096.28
2023-03-26T19:05:54.665Z,99102.41
2023-03-26T19:08:23.836Z,99097.69
2023-03-26T19:10:52.754Z,99089.88
2023-03-26T19:13:23.357Z,99089.03
2023-03-26T19:15:52.162Z,99097.53
2023-03-26T19:18:27.866Z,99096.22
2023-03-26T19:21:00.092Z,99092.25
2023-03-26T19:23:32.346Z,99094.09
2023-03-26T19:26:01.953Z,99090.09
2023-03-26T19:28:32.874Z,99090.44
2023-03-26T19:31:07.155Z,99087.44
2023-03-26T19:33:40.370Z,99092.94
2023-03-26T19:36:32.177Z,99089.09
2023-03-26T19:38:58.929Z,99089.44
2023-03-26T19:41:34.179Z,99091.97
2023-03-26T19:44:17.945Z,99078.97
2023-03-26T19:47:48.412Z,99076.69
2023-03-26T19:49:42.399Z,99080.38
2023-03-26T19:52:38.444Z,99092.81
2023-03-26T19:55:08.681Z,99091.94
2023-03-26T19:57:36.479Z,99090.09
2023-03-26T20:00:11.268Z,99089.69
2023-03-26T20:02:38.236Z,99091.06
2023-03-26T20:05:06.028Z,99088.69
2023-03-26T20:07:35.284Z,99092.56
2023-03-26T20:10:05.832Z,99085.22
2023-03-26T20:12:33.287Z,99073.50
2023-03-26T20:15:01.878Z,99068.53
2023-03-26T20:17:30.948Z,99079.22
2023-03-26T20:19:57.982Z,99077.50
2023-03-26T20:22:25.292Z,99076.25
2023-03-26T20:24:52.163Z,99084.72
2023-03-26T20:27:19.464Z,99081.78
2023-03-26T20:29:46.751Z,99076.72
2023-03-26T20:32:23.614Z,99060.69
2023-03-26T20:34:52.373Z,99056.91
2023-03-26T20:37:20.233Z,99055.19
2023-03-26T20:39:47.076Z,99060.84
2023-03-26T20:42:16.000Z,99063.03
2023-03-26T20:44:43.216Z,99060.09
2023-03-26T20:47:11.559Z,99053.28
2023-03-26T20:49:38.931Z,99057.19
2023-03-26T20:52:06.143Z,99058.72
2023-03-26T20:54:33.267Z,99061.97
2023-03-26T20:57:00.192Z,99077.78
2023-03-26T20:59:28.242Z,99076.41
2023-03-26T21:01:57.180Z,99073.31
2023-03-26T21:04:26.410Z,99069.75
2023-03-26T21:06:57.527Z,99077.19
2023-03-26T21:09:34.226Z,99075.13
2023-03-26T21:12:14.685Z,99076.81
2023-03-26T21:14:43.973Z,99079.72
2023-03-26T21:17:22.243Z,99084.66
2023-03-26T21:19:50.139Z,99076.97
2023-03-26T21:22:37.608Z,99084.19
2023-03-26T21:25:36.700Z,99083.28
2023-03-26T21:28:05.569Z,99087.63
2023-03-26T21:30:34.364Z,99090.34
2023-03-26T21:33:02.273Z,99092.00
2023-03-26T21:35:29.723Z,99091.56
2023-03-26T21:38:00.228Z,99091.78
2023-03-26T21:40:28.034Z,99090.69
2023-03-26T21:42:55.817Z,99088.34
2023-03-26T21:45:23.423Z,99094.66
2023-03-26T21:47:50.805Z,99097.81
2023-03-26T21:50:22.248Z,99093.81
2023-03-26T21:52:50.810Z,99096.00
2023-03-26T21:55:22.513Z,99091.63
2023-03-26T21:58:04.186Z,99080.72
2023-03-26T22:01:00.981Z,99075.09
2023-03-26T22:03:55.780Z,99087.47
2023-03-26T22:06:57.485Z,99088.97
2023-03-26T22:09:33.860Z,99093.72
2023-03-26T22:12:03.921Z,99090.94
2023-03-26T22:14:30.753Z,99096.22
2023-03-26T22:16:57.642Z,99093.44
2023-03-26T22:19:24.498Z,99095.25
2023-03-26T22:21:51.341Z,99086.88
2023-03-26T22:24:18.181Z,99083.81
2023-03-26T22:26:45.023Z,99084.13
2023-03-26T22:29:12.216Z,99076.19
2023-03-26T22:31:40.174Z,99078.00
2023-03-26T22:34:07.937Z,99073.94
2023-03-26T22:36:35.305Z,99078.25
2023-03-26T22:39:02.548Z,99074.22
2023-03-26T22:41:32.468Z,99067.94
2023-03-26T22:44:09.442Z,99077.19
2023-03-26T22:46:47.472Z,99081.41
2023-03-26T22:49:14.418Z,99081.00
2023-03-26T22:51:41.507Z,99081.25
2023-03-26T22:54:08.354Z,99069.22
2023-03-26T22:56:36.181Z,99067.72
2023-03-26T22:59:03.951Z,99078.13
2023-03-26T23:01:31.270Z,99071.91
2023-03-26T23:03:58.404Z,99068.13
2023-03-26T23:06:25.319Z,99061.47
2023-03-26T23:08:52.322Z,99055.84
2023-03-26T23:11:22.010Z,99063.78
2023-03-26T23:13:49.701Z,99064.44
2023-03-26T23:16:17.523Z,99064.59
2023-03-26T23:18:44.899Z,99058.91
2023-03-26T23:21:18.535Z,99061.84
2023-03-26T23:23:46.025Z,99052.50
2023-03-26T23:26:14.583Z,99049.75
2023-03-26T23:28:41.416Z,99050.69
2023-03-26T23:31:10.250Z,99047.81
2023-03-26T23:33:39.208Z,99045.09
2023-03-26T23:36:10.510Z,99032.13
2023-03-26T23:38:43.453Z,99023.09
2023-03-26T23:41:15.106Z,99029.34
2023-03-26T23:43:54.840Z,99015.88
2023-03-26T23:46:24.541Z,99011.78
2023-03-26T23:48:52.502Z,99014.03
2023-03-26T23:51:20.264Z,99013.09
2023-03-26T23:53:49.318Z,99007.19
2023-03-26T23:56:16.674Z,99016.94
2023-03-26T23:58:43.544Z,99011.59
